createdAt,value
2023-03-12T00:00:53.467Z,12.60
2023-03-12T00:03:22.550Z,12.60
2023-03-12T00:05:50.275Z,12.70
2023-03-12T00:08:18.181Z,12.60
2023-03-12T00:10:46.240Z,12.50
2023-03-12T00:13:14.229Z,12.40
2023-03-12T00:15:42.260Z,12.40
2023-03-12T00:18:11.559Z,12.50
2023-03-12T00:20:40.887Z,12.40
2023-03-12T00:23:13.947Z,12.40
2023-03-12T00:25:41.831Z,12.40
2023-03-12T00:28:09.845Z,12.40
2023-03-12T00:30:37.986Z,12.50
2023-03-12T00:33:05.844Z,12.40
2023-03-12T00:35:33.887Z,12.30
2023-03-12T00:38:03.185Z,12.20
2023-03-12T00:40:31.295Z,12.30
2023-03-12T00:42:59.025Z,12.40
2023-03-12T00:45:27.113Z,12.40
2023-03-12T00:47:54.801Z,12.50
2023-03-12T00:50:22.860Z,12.30
2023-03-12T00:52:50.586Z,12.30
2023-03-12T00:55:20.034Z,12.40
2023-03-12T00:57:47.894Z,12.50
2023-03-12T01:00:16.764Z,12.50
2023-03-12T01:02:44.640Z,12.40
2023-03-12T01:05:13.710Z,12.40
2023-03-12T01:07:41.783Z,12.20
2023-03-12T01:10:10.967Z,12.30
2023-03-12T01:12:40.255Z,12.30
2023-03-12T01:15:09.067Z,12.30
2023-03-12T01:17:37.196Z,12.30
2023-03-12T01:20:06.186Z,12.10
2023-03-12T01:22:34.719Z,12.10
2023-03-12T01:25:02.920Z,12.00
2023-03-12T01:27:31.167Z,12.00
2023-03-12T01:30:00.644Z,11.90
2023-03-12T01:32:28.950Z,12.00
2023-03-12T01:34:56.813Z,12.10
2023-03-12T01:37:25.195Z,12.00
2023-03-12T01:39:53.122Z,12.10
2023-03-12T01:42:21.597Z,12.00
2023-03-12T01:44:54.293Z,12.00
2023-03-12T01:47:26.707Z,11.90
2023-03-12T01:49:55.100Z,11.80
2023-03-12T01:52:24.629Z,11.80
2023-03-12T01:54:55.375Z,11.80
2023-03-12T01:57:25.410Z,11.70
2023-03-12T01:59:54.127Z,11.70
2023-03-12T02:02:26.873Z,11.60
2023-03-12T02:04:59.872Z,11.70
2023-03-12T02:07:27.961Z,11.70
2023-03-12T02:09:55.621Z,11.80
2023-03-12T02:12:23.867Z,11.80
2023-03-12T02:14:51.543Z,11.80
2023-03-12T02:17:19.251Z,11.80
2023-03-12T02:19:51.518Z,11.70
2023-03-12T02:22:20.931Z,11.70
2023-03-12T02:24:51.475Z,11.70
2023-03-12T02:27:20.810Z,11.70
2023-03-12T02:29:48.521Z,11.80
2023-03-12T02:32:19.763Z,11.70
2023-03-12T02:34:48.089Z,11.70
2023-03-12T02:37:15.824Z,11.60
2023-03-12T02:39:44.041Z,11.60
2023-03-12T02:42:11.738Z,11.70
2023-03-12T02:44:41.290Z,11.60
2023-03-12T02:47:09.236Z,11.70
2023-03-12T02:49:37.617Z,11.50
2023-03-12T02:52:05.864Z,11.40
2023-03-12T02:54:33.996Z,11.50
2023-03-12T02:57:01.847Z,11.40
2023-03-12T02:59:30.307Z,11.40
2023-03-12T03:02:00.662Z,11.50
2023-03-12T03:04:29.192Z,11.50
2023-03-12T03:06:57.602Z,11.50
2023-03-12T03:09:25.860Z,11.40
2023-03-12T03:11:53.606Z,11.60
2023-03-12T03:14:21.354Z,11.60
2023-03-12T03:16:49.479Z,11.60
2023-03-12T03:19:18.833Z,11.40
2023-03-12T03:21:47.224Z,11.40
2023-03-12T03:24:15.002Z,11.30
2023-03-12T03:26:42.753Z,11.50
2023-03-12T03:29:10.509Z,11.70
2023-03-12T03:31:38.285Z,11.80
2023-03-12T03:34:06.045Z,11.80
2023-03-12T03:36:36.114Z,11.80
2023-03-12T03:39:05.275Z,12.00
2023-03-12T03:41:33.582Z,12.00
2023-03-12T03:44:01.329Z,12.00
2023-03-12T03:46:31.688Z,12.00
2023-03-12T03:48:59.951Z,12.00
2023-03-12T03:51:27.800Z,11.90
2023-03-12T03:53:57.526Z,11.90
2023-03-12T03:56:25.262Z,11.90
2023-03-12T03:58:53.581Z,11.80
2023-03-12T04:01:21.547Z,11.80
2023-03-12T04:03:49.295Z,11.80
2023-03-12T04:06:17.010Z,11.70
2023-03-12T04:08:44.796Z,11.80
2023-03-12T04:11:14.796Z,11.80
2023-03-12T04:13:42.590Z,11.70
2023-03-12T04:16:10.804Z,11.70
2023-03-12T04:18:39.068Z,11.70
2023-03-12T04:21:07.806Z,11.70
2023-03-12T04:23:35.642Z,11.70
2023-03-12T04:26:03.385Z,11.70
2023-03-12T04:28:32.885Z,11.60
2023-03-12T04:31:01.777Z,11.70
2023-03-12T04:33:30.057Z,11.70
2023-03-12T04:35:58.452Z,11.70
2023-03-12T04:38:27.021Z,11.60
2023-03-12T04:41:01.643Z,11.60
2023-03-12T04:43:29.807Z,11.40
2023-03-12T04:45:59.304Z,11.30
2023-03-12T04:48:27.174Z,11.40
2023-03-12T04:50:54.945Z,11.30
2023-03-12T04:53:23.335Z,11.40
2023-03-12T04:55:51.321Z,11.30
2023-03-12T04:58:19.655Z,11.30
2023-03-12T05:00:47.869Z,11.20
2023-03-12T05:03:17.794Z,11.30
2023-03-12T05:05:45.609Z,11.40
2023-03-12T05:08:13.785Z,11.40
2023-03-12T05:10:41.554Z,11.20
2023-03-12T05:13:15.047Z,11.40
2023-03-12T05:15:42.926Z,11.50
2023-03-12T05:18:10.629Z,11.50
2023-03-12T05:20:40.286Z,11.60
2023-03-12T05:23:08.045Z,11.60
2023-03-12T05:25:36.813Z,11.70
2023-03-12T05:28:04.633Z,11.70
2023-03-12T05:30:32.776Z,11.70
2023-03-12T05:33:00.506Z,11.80
2023-03-12T05:35:28.704Z,11.80
2023-03-12T05:37:57.771Z,11.90
2023-03-12T05:40:25.538Z,11.90
2023-03-12T05:42:54.117Z,11.90
2023-03-12T05:45:21.920Z,11.90
2023-03-12T05:47:49.689Z,11.90
2023-03-12T05:50:17.961Z,11.90
2023-03-12T05:52:45.696Z,11.90
2023-03-12T05:55:15.172Z,11.70
2023-03-12T05:57:42.964Z,11.80
2023-03-12T06:00:13.590Z,11.80
2023-03-12T06:02:41.507Z,11.80
2023-03-12T06:05:11.035Z,11.80
2023-03-12T06:07:39.489Z,11.80
2023-03-12T06:10:08.610Z,11.90
2023-03-12T06:12:37.891Z,11.80
2023-03-12T06:15:06.417Z,11.80
2023-03-12T06:17:34.691Z,11.60
2023-03-12T06:20:02.595Z,11.70
2023-03-12T06:22:30.571Z,11.80
2023-03-12T06:24:58.435Z,11.80
2023-03-12T06:27:26.768Z,11.90
2023-03-12T06:29:55.796Z,11.80
2023-03-12T06:32:24.000Z,11.80
2023-03-12T06:34:51.709Z,11.80
2023-03-12T06:37:19.979Z,11.80
2023-03-12T06:39:48.053Z,11.90
2023-03-12T06:42:17.677Z,11.90
2023-03-12T06:44:46.086Z,11.80
2023-03-12T06:47:17.508Z,11.90
2023-03-12T06:49:45.790Z,12.00
2023-03-12T06:52:13.462Z,11.90
2023-03-12T06:54:41.641Z,11.80
2023-03-12T06:57:09.307Z,11.90
2023-03-12T06:59:36.982Z,12.00
2023-03-12T07:02:04.764Z,12.00
2023-03-12T07:04:33.771Z,12.00
2023-03-12T07:07:02.014Z,12.10
2023-03-12T07:09:29.698Z,12.20
2023-03-12T07:11:57.800Z,12.10
2023-03-12T07:14:25.546Z,12.20
2023-03-12T07:16:53.599Z,12.20
2023-03-12T07:19:21.268Z,12.10
2023-03-12T07:21:50.836Z,12.10
2023-03-12T07:24:18.488Z,12.20
2023-03-12T07:26:46.558Z,12.20
2023-03-12T07:29:14.217Z,12.10
2023-03-12T07:31:42.282Z,12.10
2023-03-12T07:34:10.059Z,12.00
2023-03-12T07:36:37.974Z,12.10
2023-03-12T07:39:08.186Z,12.00
2023-03-12T07:41:38.120Z,12.00
2023-03-12T07:44:06.383Z,12.10
2023-03-12T07:46:34.264Z,12.20
2023-03-12T07:49:02.332Z,12.30
2023-03-12T07:51:30.044Z,12.20
2023-03-12T07:53:58.235Z,12.20
2023-03-12T07:56:27.351Z,12.30
2023-03-12T07:58:56.054Z,12.30
2023-03-12T08:01:25.352Z,12.40
2023-03-12T08:03:55.932Z,12.30
2023-03-12T08:06:24.471Z,12.50
2023-03-12T08:08:52.492Z,12.40
2023-03-12T08:11:20.165Z,12.40
2023-03-12T08:13:49.180Z,12.60
2023-03-12T08:16:18.461Z,12.60
2023-03-12T08:18:46.734Z,12.70
2023-03-12T08:21:16.610Z,12.70
2023-03-12T08:23:44.827Z,12.80
2023-03-12T08:26:12.486Z,12.90
2023-03-12T08:28:40.135Z,12.90
2023-03-12T08:31:09.832Z,13.00
2023-03-12T08:33:41.059Z,13.10
2023-03-12T08:36:12.671Z,13.20
2023-03-12T08:38:42.652Z,13.40
2023-03-12T08:41:13.984Z,13.30
2023-03-12T08:43:41.720Z,13.40
2023-03-12T08:46:12.362Z,13.30
2023-03-12T08:48:40.629Z,13.50
2023-03-12T08:51:08.393Z,13.50
2023-03-12T08:53:36.868Z,13.50
2023-03-12T08:56:05.757Z,13.40
2023-03-12T08:58:33.819Z,13.40
2023-03-12T09:01:02.149Z,13.50
2023-03-12T09:03:31.718Z,13.40
2023-03-12T09:15:25.840Z,13.00
2023-03-12T09:46:49.411Z,12.80
2023-03-12T09:50:02.660Z,13.20
2023-03-12T09:53:27.754Z,13.60
2023-03-12T09:55:57.406Z,13.80
2023-03-12T09:58:29.713Z,13.60
2023-03-12T10:01:01.490Z,13.40
2023-03-12T10:03:41.979Z,13.70
2023-03-12T10:06:12.502Z,14.20
2023-03-12T10:08:48.616Z,14.60
2023-03-12T10:11:20.657Z,14.90
2023-03-12T10:13:59.113Z,15.10
2023-03-12T10:16:42.375Z,15.20
2023-03-12T10:19:18.266Z,14.90
2023-03-12T10:21:47.695Z,14.60
2023-03-12T10:24:25.473Z,14.60
2023-03-12T10:26:55.247Z,14.40
2023-03-12T10:29:25.443Z,14.20
2023-03-12T10:31:55.053Z,14.10
2023-03-12T10:34:26.793Z,14.10
2023-03-12T10:36:55.107Z,14.00
2023-03-12T10:39:23.054Z,13.80
2023-03-12T10:41:53.059Z,13.60
2023-03-12T10:44:22.581Z,13.40
2023-03-12T10:47:00.013Z,13.20
2023-03-12T10:49:32.403Z,13.00
2023-03-12T10:52:02.532Z,13.00
2023-03-12T10:54:35.297Z,12.90
2023-03-12T10:57:03.368Z,12.90
2023-03-12T10:59:32.372Z,13.00
2023-03-12T11:02:01.735Z,12.80
2023-03-12T11:04:30.587Z,12.90
2023-03-12T11:07:24.219Z,13.00
2023-03-12T11:10:14.354Z,13.20
2023-03-12T11:12:42.430Z,13.30
2023-03-12T11:15:21.152Z,13.30
2023-03-12T11:17:50.422Z,13.20
2023-03-12T11:20:28.179Z,13.30
2023-03-12T11:22:56.508Z,13.20
2023-03-12T11:25:25.536Z,13.80
2023-03-12T11:27:55.386Z,14.40
2023-03-12T11:30:24.748Z,14.80
2023-03-12T11:32:53.993Z,15.00
2023-03-12T11:35:25.476Z,15.10
2023-03-12T11:37:57.927Z,15.00
2023-03-12T11:40:33.822Z,15.00
2023-03-12T11:43:36.231Z,15.00
2023-03-12T11:46:14.870Z,15.00
2023-03-12T11:48:48.974Z,15.00
2023-03-12T11:51:23.053Z,15.00
2023-03-12T11:54:00.983Z,15.00
2023-03-12T11:56:29.838Z,14.90
2023-03-12T11:59:04.741Z,14.90
2023-03-12T12:01:39.356Z,14.90
2023-03-12T12:04:44.081Z,14.80
2023-03-12T12:07:18.071Z,14.80
2023-03-12T12:09:47.775Z,14.70
2023-03-12T12:12:25.787Z,14.70
2023-03-12T12:15:02.084Z,14.60
2023-03-12T12:17:37.621Z,14.60
2023-03-12T12:20:21.660Z,14.50
2023-03-12T12:22:58.642Z,14.60
2023-03-12T12:25:29.973Z,14.50
2023-03-12T12:28:09.151Z,14.50
2023-03-12T12:30:46.115Z,14.50
2023-03-12T12:33:23.719Z,14.50
2023-03-12T12:35:52.076Z,14.70
2023-03-12T12:38:29.851Z,14.80
2023-03-12T12:41:01.182Z,14.80
2023-03-12T12:43:29.756Z,14.80
2023-03-12T12:45:59.412Z,14.70
2023-03-12T12:48:29.522Z,14.80
2023-03-12T12:51:00.451Z,14.70
2023-03-12T12:53:32.178Z,14.60
2023-03-12T12:56:07.560Z,15.20
2023-03-12T12:58:51.881Z,16.10
2023-03-12T13:01:20.248Z,16.70
2023-03-12T13:03:48.219Z,17.20
2023-03-12T13:06:16.383Z,17.50
2023-03-12T13:09:02.478Z,17.80
2023-03-12T13:11:31.632Z,18.00
2023-03-12T13:14:30.507Z,18.20
2023-03-12T13:17:09.290Z,18.50
2023-03-12T13:19:43.191Z,17.80
2023-03-12T13:22:15.922Z,16.70
2023-03-12T13:24:47.245Z,16.20
2023-03-12T13:27:18.481Z,15.70
2023-03-12T13:29:46.217Z,15.30
2023-03-12T13:32:39.081Z,15.00
2023-03-12T13:35:08.927Z,14.60
2023-03-12T13:38:02.128Z,14.20
2023-03-12T13:41:04.701Z,14.10
2023-03-12T13:44:00.526Z,13.90
2023-03-12T13:46:30.915Z,13.90
2023-03-12T13:49:01.102Z,13.70
2023-03-12T13:51:29.041Z,13.40
2023-03-12T13:53:59.641Z,13.40
2023-03-12T13:56:42.795Z,13.30
2023-03-12T13:59:17.718Z,13.20
2023-03-12T14:01:48.172Z,13.20
2023-03-12T14:04:19.240Z,13.20
2023-03-12T14:06:54.487Z,13.00
2023-03-12T14:09:25.744Z,13.10
2023-03-12T14:11:59.131Z,13.00
2023-03-12T14:14:43.399Z,13.00
2023-03-12T14:17:18.629Z,12.90
2023-03-12T14:19:48.950Z,12.70
2023-03-12T14:22:17.034Z,12.70
2023-03-12T14:24:50.710Z,12.80
2023-03-12T14:27:21.245Z,12.80
2023-03-12T14:29:50.490Z,12.70
2023-03-12T14:32:20.053Z,12.90
2023-03-12T14:34:50.421Z,13.00
2023-03-12T14:37:19.238Z,13.00
2023-03-12T14:39:50.653Z,12.80
2023-03-12T14:42:25.915Z,12.80
2023-03-12T14:44:59.148Z,12.90
2023-03-12T14:47:27.195Z,12.90
2023-03-12T14:49:56.375Z,12.90
2023-03-12T14:52:25.783Z,13.10
2023-03-12T14:54:57.956Z,13.00
2023-03-12T14:57:27.659Z,13.00
2023-03-12T14:59:56.351Z,13.00
2023-03-12T15:02:26.725Z,13.10
2023-03-12T15:04:56.446Z,13.10
2023-03-12T15:07:28.741Z,13.00
2023-03-12T15:09:56.620Z,13.10
2023-03-12T15:12:26.227Z,13.10
2023-03-12T15:14:56.742Z,13.10
2023-03-12T15:17:27.222Z,13.20
2023-03-12T15:19:57.249Z,13.10
2023-03-12T15:22:29.375Z,13.20
2023-03-12T15:24:57.315Z,13.30
2023-03-12T15:27:35.133Z,13.40
2023-03-12T15:30:25.705Z,13.30
2023-03-12T15:33:08.489Z,13.30
2023-03-12T15:35:37.099Z,13.20
2023-03-12T15:38:07.075Z,13.00
2023-03-12T15:40:34.964Z,13.70
2023-03-12T15:43:03.593Z,13.60
2023-03-12T15:45:37.279Z,13.60
2023-03-12T15:48:06.850Z,13.70
2023-03-12T15:50:36.935Z,13.60
2023-03-12T15:53:05.944Z,13.50
2023-03-12T15:55:33.963Z,13.50
2023-03-12T15:58:01.731Z,13.50
2023-03-12T16:00:30.242Z,13.40
2023-03-12T16:03:00.696Z,13.40
2023-03-12T16:05:30.992Z,13.40
2023-03-12T16:07:58.987Z,13.40
2023-03-12T16:10:27.769Z,13.40
2023-03-12T16:13:03.507Z,13.40
2023-03-12T16:15:34.193Z,13.40
2023-03-12T16:18:03.427Z,13.40
2023-03-12T16:20:31.316Z,13.40
2023-03-12T16:22:59.133Z,13.50
2023-03-12T16:25:26.951Z,13.50
2023-03-12T16:27:56.548Z,13.50
2023-03-12T16:30:26.484Z,13.50
2023-03-12T16:32:54.442Z,13.50
2023-03-12T16:35:23.722Z,13.50
2023-03-12T16:37:51.546Z,13.60
2023-03-12T16:40:32.554Z,13.60
2023-03-12T16:43:03.848Z,13.70
2023-03-12T16:45:32.569Z,13.60
2023-03-12T16:48:01.133Z,13.70
2023-03-12T16:50:30.441Z,13.60
2023-03-12T16:53:01.077Z,13.60
2023-03-12T16:55:30.706Z,13.60
2023-03-12T16:58:00.124Z,13.70
2023-03-12T17:00:29.400Z,13.70
2023-03-12T17:02:59.163Z,13.60
2023-03-12T17:05:27.240Z,13.70
2023-03-12T17:07:56.753Z,14.00
2023-03-12T17:10:24.656Z,14.20
2023-03-12T17:12:52.754Z,14.30
2023-03-12T17:15:22.288Z,14.40
2023-03-12T17:17:50.172Z,14.40
2023-03-12T17:20:19.250Z,14.50
2023-03-12T17:22:47.198Z,14.50
2023-03-12T17:25:21.842Z,14.60
2023-03-12T17:27:50.424Z,14.60
2023-03-12T17:30:19.178Z,14.60
2023-03-12T17:32:47.199Z,14.70
2023-03-12T17:35:15.699Z,14.70
2023-03-12T17:37:43.559Z,14.70
2023-03-12T17:40:12.691Z,14.70
2023-03-12T17:42:41.783Z,14.70
2023-03-12T17:45:10.240Z,14.70
2023-03-12T17:47:38.415Z,14.80
2023-03-12T17:50:07.079Z,14.70
2023-03-12T17:52:35.087Z,14.80
2023-03-12T17:55:03.598Z,14.80
2023-03-12T17:57:31.580Z,14.80
2023-03-12T18:00:01.669Z,14.80
2023-03-12T18:02:29.689Z,14.80
2023-03-12T18:04:58.274Z,14.80
2023-03-12T18:07:26.315Z,14.80
2023-03-12T18:09:54.206Z,14.90
2023-03-12T18:12:22.104Z,14.90
2023-03-12T18:14:49.864Z,14.90
2023-03-12T18:17:19.030Z,14.90
2023-03-12T18:19:46.771Z,14.90
2023-03-12T18:22:15.309Z,14.90
2023-03-12T18:24:43.373Z,14.90
2023-03-12T18:27:11.634Z,14.90
2023-03-12T18:29:41.031Z,14.90
2023-03-12T18:32:09.430Z,14.90
2023-03-12T18:34:42.103Z,14.90
2023-03-12T18:37:09.912Z,14.90
2023-03-12T18:39:37.636Z,14.90
2023-03-12T18:42:05.657Z,14.90
2023-03-12T18:44:33.431Z,14.90
2023-03-12T18:47:01.204Z,15.00
2023-03-12T18:49:29.304Z,15.00
2023-03-12T18:51:58.431Z,15.00
2023-03-12T18:54:26.479Z,15.00
2023-03-12T18:56:54.458Z,15.00
2023-03-12T18:59:22.377Z,15.00
2023-03-12T19:01:50.188Z,15.00
2023-03-12T19:04:19.182Z,15.00
2023-03-12T19:06:51.526Z,15.00
2023-03-12T19:09:21.247Z,15.00
2023-03-12T19:11:49.287Z,15.00
2023-03-12T19:14:17.527Z,15.00
2023-03-12T19:16:45.766Z,15.00
2023-03-12T19:19:13.759Z,15.00
2023-03-12T19:21:41.657Z,15.00
2023-03-12T19:24:09.727Z,15.00
2023-03-12T19:26:39.060Z,15.00
2023-03-12T19:29:08.380Z,15.00
2023-03-12T19:31:36.566Z,15.00
2023-03-12T19:34:04.497Z,15.00
2023-03-12T19:36:32.366Z,15.00
2023-03-12T19:39:02.355Z,15.20
2023-03-12T19:41:32.470Z,15.20
2023-03-12T19:44:01.780Z,15.20
2023-03-12T19:46:31.699Z,15.20
2023-03-12T19:49:03.736Z,15.20
2023-03-12T19:51:42.031Z,15.20
2023-03-12T19:54:10.240Z,15.20
2023-03-12T19:56:38.211Z,15.20
2023-03-12T19:59:07.741Z,15.20
2023-03-12T20:01:35.751Z,15.20
2023-03-12T20:04:07.869Z,15.20
2023-03-12T20:06:36.048Z,15.20
2023-03-12T20:09:05.217Z,15.20
2023-03-12T20:11:33.637Z,15.20
2023-03-12T20:14:01.533Z,15.20
2023-03-12T20:16:31.052Z,15.20
2023-03-12T20:18:59.110Z,15.20
2023-03-12T20:21:29.443Z,15.20
2023-03-12T20:23:57.801Z,15.20
2023-03-12T20:26:29.486Z,15.20
2023-03-12T20:28:57.495Z,15.20
2023-03-12T20:31:25.738Z,15.20
2023-03-12T20:33:55.375Z,15.20
2023-03-12T20:36:23.467Z,15.20
2023-03-12T20:38:51.529Z,15.20
2023-03-12T20:41:19.586Z,15.20
2023-03-12T20:43:47.725Z,15.20
2023-03-12T20:46:15.888Z,15.20
2023-03-12T20:48:43.916Z,15.20
2023-03-12T20:51:16.634Z,15.20
2023-03-12T20:53:44.861Z,15.20
2023-03-12T20:56:13.168Z,15.20
2023-03-12T20:58:41.444Z,15.20
2023-03-12T21:01:09.585Z,15.20
2023-03-12T21:03:37.717Z,15.20
2023-03-12T21:06:06.166Z,15.20
2023-03-12T21:08:35.793Z,15.20
2023-03-12T21:11:06.603Z,15.20
2023-03-12T21:13:34.602Z,15.20
2023-03-12T21:16:02.687Z,15.20
2023-03-12T21:18:30.851Z,15.30
2023-03-12T21:21:02.372Z,15.40
2023-03-12T21:23:30.756Z,15.40
2023-03-12T21:26:01.024Z,15.40
2023-03-12T21:28:29.139Z,15.40
2023-03-12T21:30:57.114Z,15.40
2023-03-12T21:33:25.230Z,15.40
2023-03-12T21:35:54.489Z,15.40
2023-03-12T21:38:22.576Z,15.40
2023-03-12T21:40:50.517Z,15.40
2023-03-12T21:43:19.915Z,15.40
2023-03-12T21:45:48.044Z,15.40
2023-03-12T21:48:15.972Z,15.40
2023-03-12T21:50:43.736Z,15.40
2023-03-12T21:53:23.145Z,15.40
2023-03-12T21:55:56.155Z,15.40
2023-03-12T21:58:25.693Z,15.40
2023-03-12T22:00:53.732Z,15.40
2023-03-12T22:03:23.901Z,15.40
2023-03-12T22:05:53.455Z,15.40
2023-03-12T22:08:21.537Z,15.40
2023-03-12T22:10:49.722Z,15.40
2023-03-12T22:13:17.839Z,15.40
2023-03-12T22:15:50.238Z,15.40
2023-03-12T22:18:18.317Z,15.40
2023-03-12T22:20:53.480Z,15.40
2023-03-12T22:23:21.592Z,15.40
2023-03-12T22:25:49.810Z,15.40
2023-03-12T22:28:17.827Z,15.40
2023-03-12T22:30:46.153Z,15.50
2023-03-12T22:33:15.522Z,15.50
2023-03-12T22:35:46.571Z,15.50
2023-03-12T22:38:14.474Z,15.50
2023-03-12T22:40:42.505Z,15.50
2023-03-12T22:43:10.778Z,15.50
2023-03-12T22:45:38.643Z,15.50
2023-03-12T22:48:07.686Z,15.50
2023-03-12T22:50:37.103Z,15.50
2023-03-12T22:53:04.955Z,15.50
2023-03-12T22:55:33.982Z,15.50
2023-03-12T22:58:02.052Z,15.50
2023-03-12T23:00:29.966Z,15.50
2023-03-12T23:02:58.057Z,15.50
2023-03-12T23:05:26.231Z,15.50
2023-03-12T23:07:55.924Z,15.60
2023-03-12T23:10:24.060Z,15.60
2023-03-12T23:12:52.018Z,15.60
2023-03-12T23:15:21.082Z,15.60
2023-03-12T23:21:02.620Z,15.60
2023-03-12T23:23:32.135Z,15.60
2023-03-12T23:26:00.895Z,15.60
2023-03-12T23:28:29.371Z,15.60
2023-03-12T23:30:57.348Z,15.60
2023-03-12T23:33:25.317Z,15.60
2023-03-12T23:35:57.205Z,15.60
2023-03-12T23:38:25.346Z,15.60
2023-03-12T23:40:54.467Z,15.60
2023-03-12T23:43:22.289Z,15.60
2023-03-12T23:45:56.579Z,15.60
2023-03-12T23:48:24.722Z,15.60
2023-03-12T23:50:52.769Z,15.60
2023-03-12T23:53:20.643Z,15.70
2023-03-12T23:55:59.418Z,15.60
2023-03-12T23:58:27.401Z,15.60
